createdAt,value
2018-04-17T00:01:49.797Z,14.80
2018-04-17T00:04:15.662Z,14.67
2018-04-17T00:06:41.580Z,13.23
2018-04-17T00:09:07.453Z,13.63
2018-04-17T00:11:33.316Z,13.53
2018-04-17T00:13:59.178Z,13.03
2018-04-17T00:16:25.061Z,16.60
2018-04-17T00:18:50.929Z,14.27
2018-04-17T00:21:16.836Z,16.23
2018-04-17T00:23:42.702Z,14.50
2018-04-17T00:26:08.594Z,15.90
2018-04-17T00:28:34.508Z,18.77
2018-04-17T00:31:00.392Z,17.90
2018-04-17T00:33:26.294Z,15.37
2018-04-17T00:35:52.161Z,17.30
2018-04-17T00:38:18.073Z,22.13
2018-04-17T00:40:43.952Z,18.70
2018-04-17T00:43:09.843Z,15.50
2018-04-17T00:45:35.724Z,16.10
2018-04-17T00:48:01.592Z,16.43
2018-04-17T00:50:27.507Z,16.30
2018-04-17T00:52:53.388Z,20.10
2018-04-17T00:55:19.269Z,20.40
2018-04-17T00:57:45.125Z,24.77
2018-04-17T01:00:11.066Z,24.67
2018-04-17T01:02:36.922Z,16.90
2018-04-17T01:05:03.908Z,18.70
2018-04-17T01:07:29.766Z,17.70
2018-04-17T01:09:55.629Z,14.73
2018-04-17T01:12:21.498Z,16.93
2018-04-17T01:14:47.357Z,17.47
2018-04-17T01:17:13.232Z,18.60
2018-04-17T01:19:39.089Z,17.47
2018-04-17T01:22:04.997Z,16.13
2018-04-17T01:24:30.862Z,15.00
2018-04-17T01:26:56.743Z,14.13
2018-04-17T01:29:22.606Z,18.33
2018-04-17T01:31:48.481Z,18.60
2018-04-17T01:34:14.345Z,28.47
2018-04-17T01:36:40.487Z,12.97
2018-04-17T01:39:06.359Z,15.00
2018-04-17T01:41:32.232Z,33.27
2018-04-17T01:43:58.109Z,41.63
2018-04-17T01:46:23.992Z,41.90
2018-04-17T01:48:49.861Z,16.07
2018-04-17T01:51:15.698Z,28.30
2018-04-17T01:53:41.582Z,41.27
2018-04-17T01:56:07.428Z,35.37
2018-04-17T01:58:33.292Z,29.90
2018-04-17T02:00:59.157Z,28.37
2018-04-17T02:03:25.054Z,21.10
2018-04-17T02:05:50.953Z,31.80
2018-04-17T02:08:16.818Z,24.07
2018-04-17T02:10:42.806Z,18.17
2018-04-17T02:13:08.680Z,24.53
2018-04-17T02:15:34.557Z,31.17
2018-04-17T02:18:00.444Z,36.47
2018-04-17T02:20:26.341Z,44.37
2018-04-17T02:22:52.197Z,40.60
2018-04-17T02:25:18.101Z,67.47
2018-04-17T02:27:43.972Z,40.00
2018-04-17T02:30:09.833Z,58.87
2018-04-17T02:32:35.712Z,36.33
2018-04-17T02:35:01.570Z,29.63
2018-04-17T02:37:27.482Z,24.73
2018-04-17T02:39:53.399Z,25.27
2018-04-17T02:42:19.245Z,31.77
2018-04-17T02:44:45.102Z,40.30
2018-04-17T02:47:10.987Z,22.73
2018-04-17T02:49:36.827Z,33.90
2018-04-17T02:52:02.700Z,52.63
2018-04-17T02:54:28.557Z,47.00
2018-04-17T02:56:54.422Z,21.73
2018-04-17T02:59:20.283Z,35.37
2018-04-17T03:01:46.221Z,38.00
2018-04-17T03:04:12.101Z,46.43
2018-04-17T03:06:38.295Z,42.73
2018-04-17T03:09:04.217Z,24.73
2018-04-17T03:11:30.085Z,24.77
2018-04-17T03:13:55.987Z,54.83
2018-04-17T03:16:21.849Z,28.70
2018-04-17T03:18:47.717Z,40.53
2018-04-17T03:21:13.594Z,38.50
2018-04-17T03:23:39.476Z,24.50
2018-04-17T03:26:05.372Z,23.90
2018-04-17T03:28:31.229Z,46.80
2018-04-17T03:30:57.090Z,33.73
2018-04-17T03:33:22.979Z,37.70
2018-04-17T03:35:48.874Z,32.17
2018-04-17T03:38:14.765Z,50.87
2018-04-17T03:40:40.651Z,38.33
2018-04-17T03:43:06.570Z,25.77
2018-04-17T03:45:32.478Z,18.80
2018-04-17T03:47:58.373Z,13.87
2018-04-17T03:50:24.278Z,20.67
2018-04-17T03:52:50.217Z,20.20
2018-04-17T03:55:16.107Z,48.23
2018-04-17T03:57:42.009Z,18.23
2018-04-17T04:00:07.897Z,23.93
2018-04-17T04:02:33.778Z,24.73
2018-04-17T04:04:59.655Z,31.13
2018-04-17T04:07:25.582Z,30.47
2018-04-17T04:09:51.445Z,21.03
2018-04-17T04:12:17.327Z,29.80
2018-04-17T04:14:43.349Z,21.73
2018-04-17T04:17:21.681Z,39.83
2018-04-17T04:19:59.796Z,21.37
2018-04-17T04:22:37.852Z,28.67
2018-04-17T04:28:05.358Z,24.20
2018-04-17T04:30:31.239Z,26.70
2018-04-17T04:32:57.122Z,29.33
2018-04-17T04:35:22.985Z,23.53
2018-04-17T04:37:48.859Z,31.90
2018-04-17T04:40:14.748Z,18.40
2018-04-17T04:42:40.593Z,28.73
2018-04-17T04:45:06.491Z,28.63
2018-04-17T04:47:32.345Z,47.43
2018-04-17T04:49:58.273Z,19.20
2018-04-17T04:52:24.177Z,33.60
2018-04-17T04:54:50.041Z,27.20
2018-04-17T04:57:15.920Z,25.07
2018-04-17T04:59:41.777Z,38.20
2018-04-17T05:02:07.657Z,14.83
2018-04-17T05:04:33.515Z,21.53
2018-04-17T05:06:59.413Z,20.83
2018-04-17T05:09:25.237Z,20.60
2018-04-17T05:11:51.088Z,21.57
2018-04-17T05:14:16.955Z,43.23
2018-04-17T05:16:42.967Z,29.43
2018-04-17T05:19:08.813Z,35.37
2018-04-17T05:21:34.689Z,20.87
2018-04-17T05:24:00.562Z,19.10
2018-04-17T05:26:26.409Z,29.43
2018-04-17T05:28:52.280Z,16.37
2018-04-17T05:31:18.187Z,13.00
2018-04-17T05:33:44.065Z,23.70
2018-04-17T05:36:09.945Z,25.77
2018-04-17T05:38:35.864Z,18.63
2018-04-17T05:41:01.725Z,66.90
2018-04-17T05:43:27.634Z,59.70
2018-04-17T05:45:53.561Z,26.63
2018-04-17T05:48:19.452Z,14.90
2018-04-17T05:50:45.357Z,39.80
2018-04-17T05:53:11.230Z,28.93
2018-04-17T05:55:37.141Z,31.50
2018-04-17T05:58:02.991Z,20.93
2018-04-17T06:00:28.893Z,31.63
2018-04-17T06:02:54.745Z,29.47
2018-04-17T06:05:20.633Z,31.80
2018-04-17T06:07:46.500Z,21.00
2018-04-17T06:10:12.370Z,71.73
2018-04-17T06:12:38.240Z,29.77
2018-04-17T06:15:04.178Z,89.87
2018-04-17T06:17:30.068Z,32.33
2018-04-17T06:19:55.942Z,73.90
2018-04-17T06:22:21.818Z,49.27
2018-04-17T06:24:47.714Z,71.70
2018-04-17T06:27:13.601Z,80.77
2018-04-17T06:29:39.498Z,23.93
2018-04-17T06:32:05.356Z,18.33
2018-04-17T06:34:31.243Z,45.20
2018-04-17T06:36:57.090Z,39.23
2018-04-17T06:39:22.951Z,35.80
2018-04-17T06:41:48.937Z,32.90
2018-04-17T06:44:14.759Z,82.13
2018-04-17T06:46:40.614Z,54.13
2018-04-17T06:49:06.470Z,52.23
2018-04-17T06:51:32.338Z,54.67
2018-04-17T06:53:58.214Z,36.00
2018-04-17T06:56:24.092Z,30.40
2018-04-17T06:58:49.959Z,20.70
2018-04-17T07:01:15.790Z,44.67
2018-04-17T07:03:41.681Z,27.73
2018-04-17T07:06:07.545Z,42.10
2018-04-17T07:08:33.429Z,24.30
2018-04-17T07:10:59.308Z,22.07
2018-04-17T07:13:25.181Z,40.33
2018-04-17T07:15:51.040Z,26.87
2018-04-17T07:18:16.990Z,23.97
2018-04-17T07:20:42.833Z,32.63
2018-04-17T07:23:08.712Z,26.67
2018-04-17T07:25:34.573Z,20.77
2018-04-17T07:28:00.406Z,21.50
2018-04-17T07:30:26.294Z,18.43
2018-04-17T07:32:52.181Z,22.40
2018-04-17T07:35:18.073Z,20.67
2018-04-17T07:37:43.962Z,21.93
2018-04-17T07:40:09.825Z,21.53
2018-04-17T07:42:35.695Z,18.57
2018-04-17T07:45:01.591Z,19.40
2018-04-17T07:47:27.489Z,18.80
2018-04-17T07:49:53.378Z,16.30
2018-04-17T07:52:19.242Z,17.67
2018-04-17T07:54:45.089Z,15.87
2018-04-17T07:57:10.954Z,15.47
2018-04-17T07:59:36.790Z,13.90
2018-04-17T08:02:02.653Z,14.97
2018-04-17T08:04:28.509Z,15.00
2018-04-17T08:06:54.390Z,12.80
2018-04-17T08:09:20.261Z,14.00
2018-04-17T08:11:46.121Z,13.93
2018-04-17T08:14:11.995Z,13.13
2018-04-17T08:16:37.886Z,14.63
2018-04-17T08:19:03.785Z,16.10
2018-04-17T08:21:29.671Z,14.57
2018-04-17T08:23:55.545Z,16.17
2018-04-17T08:26:21.420Z,15.47
2018-04-17T08:28:47.266Z,15.00
2018-04-17T08:31:13.137Z,14.63
2018-04-17T08:33:39.042Z,14.17
2018-04-17T08:36:04.939Z,15.00
2018-04-17T08:38:30.782Z,15.33
2018-04-17T08:40:56.653Z,16.17
2018-04-17T08:43:22.517Z,18.17
2018-04-17T08:45:48.415Z,18.90
2018-04-17T08:48:14.280Z,19.80
2018-04-17T08:50:40.138Z,17.47
2018-04-17T08:53:06.016Z,17.67
2018-04-17T08:55:31.918Z,21.00
2018-04-17T08:57:57.804Z,16.93
2018-04-17T09:00:23.633Z,18.43
2018-04-17T09:02:49.524Z,17.13
2018-04-17T09:05:15.446Z,16.43
2018-04-17T09:07:48.302Z,16.57
2018-04-17T09:10:14.173Z,16.77
2018-04-17T09:12:40.096Z,17.60
2018-04-17T09:15:05.962Z,17.63
2018-04-17T09:17:31.853Z,15.93
2018-04-17T09:19:57.753Z,17.57
2018-04-17T09:22:23.617Z,15.43
2018-04-17T09:24:49.476Z,14.37
2018-04-17T09:27:15.360Z,14.63
2018-04-17T09:29:41.253Z,14.53
2018-04-17T09:32:07.125Z,14.73
2018-04-17T09:34:33.018Z,14.23
2018-04-17T09:36:58.898Z,13.53
2018-04-17T09:39:24.764Z,14.63
2018-04-17T09:41:50.664Z,13.07
2018-04-17T09:44:16.526Z,13.50
2018-04-17T09:46:42.461Z,13.23
2018-04-17T09:49:08.381Z,13.60
2018-04-17T09:51:34.210Z,15.63
2018-04-17T09:54:00.080Z,13.00
2018-04-17T09:56:25.964Z,11.43
2018-04-17T09:58:51.813Z,10.97
2018-04-17T10:01:17.698Z,12.60
2018-04-17T10:03:43.557Z,11.20
2018-04-17T10:06:09.425Z,9.97
2018-04-17T10:08:35.289Z,10.30
2018-04-17T10:11:01.143Z,8.70
2018-04-17T10:13:27.026Z,9.63
2018-04-17T10:15:52.861Z,10.10
2018-04-17T10:18:18.740Z,8.93
2018-04-17T10:20:44.734Z,6.97
2018-04-17T10:23:10.578Z,6.37
2018-04-17T10:25:36.453Z,7.53
2018-04-17T10:28:02.317Z,7.43
2018-04-17T10:30:28.166Z,6.97
2018-04-17T10:32:53.994Z,5.47
2018-04-17T10:35:19.834Z,6.07
2018-04-17T10:37:45.834Z,6.47
2018-04-17T10:40:11.722Z,7.60
2018-04-17T10:42:37.760Z,6.20
2018-04-17T10:45:04.600Z,10.73
2018-04-17T10:47:30.503Z,8.17
2018-04-17T10:49:56.377Z,7.83
2018-04-17T10:52:22.273Z,6.07
2018-04-17T10:54:48.118Z,6.30
2018-04-17T10:57:14.033Z,7.10
2018-04-17T10:59:39.878Z,9.37
2018-04-17T11:02:05.748Z,8.57
2018-04-17T11:04:31.612Z,5.20
2018-04-17T11:06:57.495Z,6.80
2018-04-17T11:09:23.386Z,4.40
2018-04-17T11:11:49.284Z,6.57
2018-04-17T11:14:15.142Z,4.30
2018-04-17T11:16:40.968Z,5.10
2018-04-17T11:19:06.834Z,4.40
2018-04-17T11:21:32.682Z,4.93
2018-04-17T11:23:58.550Z,5.50
2018-04-17T11:26:24.424Z,3.90
2018-04-17T11:28:50.292Z,3.03
2018-04-17T11:31:16.141Z,3.63
2018-04-17T11:33:42.037Z,3.67
2018-04-17T11:36:07.940Z,4.03
2018-04-17T11:38:33.806Z,4.07
2018-04-17T11:40:59.682Z,3.40
2018-04-17T11:43:25.533Z,4.50
2018-04-17T11:45:51.436Z,3.47
2018-04-17T11:48:17.293Z,8.60
2018-04-17T11:50:43.162Z,3.70
2018-04-17T11:53:09.036Z,3.43
2018-04-17T11:55:34.901Z,3.17
2018-04-17T11:58:00.757Z,2.77
2018-04-17T12:00:26.816Z,5.33
2018-04-17T12:02:52.738Z,2.80
2018-04-17T12:05:18.603Z,2.63
2018-04-17T12:07:44.508Z,3.30
2018-04-17T12:10:10.406Z,4.97
2018-04-17T12:12:36.281Z,2.17
2018-04-17T12:15:02.161Z,4.47
2018-04-17T12:17:28.002Z,3.00
2018-04-17T12:19:53.877Z,2.83
2018-04-17T12:22:19.713Z,3.30
2018-04-17T12:24:45.679Z,4.77
2018-04-17T12:27:11.538Z,2.60
2018-04-17T12:29:37.392Z,3.23
2018-04-17T12:32:03.301Z,2.20
2018-04-17T12:34:29.201Z,3.17
2018-04-17T12:39:27.562Z,2.97
2018-04-17T12:41:53.447Z,3.80
2018-04-17T12:44:19.306Z,2.60
2018-04-17T12:46:45.175Z,3.07
2018-04-17T12:49:11.025Z,3.00
2018-04-17T12:51:36.873Z,3.10
2018-04-17T12:54:02.751Z,3.40
2018-04-17T12:56:29.645Z,3.20
2018-04-17T12:58:55.545Z,3.27
2018-04-17T13:01:21.409Z,3.80
2018-04-17T13:03:47.233Z,3.43
2018-04-17T13:06:13.144Z,4.37
2018-04-17T13:08:39.028Z,4.67
2018-04-17T13:11:04.919Z,3.70
2018-04-17T13:13:30.784Z,4.50
2018-04-17T13:15:56.674Z,4.70
2018-04-17T13:18:22.564Z,3.60
2018-04-17T13:20:48.456Z,4.33
2018-04-17T13:23:14.344Z,4.20
2018-04-17T13:25:40.232Z,5.07
2018-04-17T13:28:06.117Z,4.50
2018-04-17T13:30:31.964Z,4.50
2018-04-17T13:32:57.817Z,6.20
2018-04-17T13:35:23.698Z,7.30
2018-04-17T13:37:49.562Z,6.13
2018-04-17T13:40:15.460Z,4.57
2018-04-17T13:42:41.328Z,3.50
2018-04-17T13:45:07.185Z,4.17
2018-04-17T13:47:33.041Z,3.70
2018-04-17T13:49:58.889Z,4.40
2018-04-17T13:52:24.745Z,3.10
2018-04-17T13:54:50.610Z,4.10
2018-04-17T13:57:16.450Z,2.90
2018-04-17T13:59:42.336Z,3.60
2018-04-17T14:02:08.204Z,3.13
2018-04-17T14:04:34.081Z,3.17
2018-04-17T14:06:59.966Z,3.50
2018-04-17T14:09:25.865Z,2.90
2018-04-17T14:11:51.716Z,3.83
2018-04-17T14:14:17.561Z,2.67
2018-04-17T14:16:43.436Z,3.50
2018-04-17T14:19:09.329Z,3.50
2018-04-17T14:21:35.216Z,2.20
2018-04-17T14:24:01.062Z,2.73
2018-04-17T14:26:26.932Z,3.20
2018-04-17T14:28:52.809Z,3.17
2018-04-17T14:31:18.687Z,2.90
2018-04-17T14:33:44.577Z,2.87
2018-04-17T14:36:10.430Z,2.90
2018-04-17T14:38:36.352Z,4.17
2018-04-17T14:41:02.223Z,2.37
2018-04-17T14:43:28.237Z,3.93
2018-04-17T14:45:54.030Z,3.23
2018-04-17T14:48:19.919Z,2.73
2018-04-17T14:50:45.794Z,2.67
2018-04-17T14:53:11.901Z,2.90
2018-04-17T14:55:37.789Z,3.13
2018-04-17T14:58:03.674Z,5.07
2018-04-17T15:00:29.517Z,3.40
2018-04-17T15:02:56.172Z,3.67
2018-04-17T15:05:22.012Z,2.57
2018-04-17T15:07:48.107Z,6.70
2018-04-17T15:10:13.958Z,3.40
2018-04-17T15:12:39.815Z,7.97
2018-04-17T15:15:05.704Z,6.00
2018-04-17T15:17:31.613Z,2.10
2018-04-17T15:19:57.457Z,2.67
2018-04-17T15:22:23.440Z,2.70
2018-04-17T15:24:49.302Z,5.00
2018-04-17T15:27:15.160Z,2.77
2018-04-17T15:29:41.069Z,2.50
2018-04-17T15:32:06.982Z,2.43
2018-04-17T15:34:32.877Z,2.40
2018-04-17T15:36:58.759Z,3.13
2018-04-17T15:39:24.672Z,3.70
2018-04-17T15:41:50.569Z,4.70
2018-04-17T15:44:16.434Z,3.20
2018-04-17T15:46:42.313Z,3.00
2018-04-17T15:49:08.267Z,2.60
2018-04-17T15:51:34.198Z,2.80
2018-04-17T15:54:00.046Z,2.50
2018-04-17T15:56:25.931Z,4.03
2018-04-17T15:58:51.836Z,2.80
2018-04-17T16:01:17.692Z,6.33
2018-04-17T16:03:43.629Z,4.20
2018-04-17T16:06:09.466Z,6.23
2018-04-17T16:08:35.356Z,4.03
2018-04-17T16:11:01.200Z,2.80
2018-04-17T16:13:27.131Z,2.90
2018-04-17T16:15:52.993Z,4.53
2018-04-17T16:18:18.894Z,3.37
2018-04-17T16:20:44.753Z,2.97
2018-04-17T16:23:10.605Z,3.20
2018-04-17T16:25:36.498Z,2.93
2018-04-17T16:28:02.398Z,3.53
2018-04-17T16:30:28.335Z,3.53
2018-04-17T16:32:54.186Z,3.33
2018-04-17T16:35:20.069Z,4.63
2018-04-17T16:37:45.965Z,3.20
2018-04-17T16:40:11.864Z,6.73
2018-04-17T16:42:38.081Z,3.43
2018-04-17T16:45:03.990Z,4.30
2018-04-17T16:47:29.863Z,3.40
2018-04-17T16:49:55.732Z,3.10
2018-04-17T16:52:21.633Z,3.43
2018-04-17T16:54:47.546Z,3.50
2018-04-17T16:57:13.390Z,3.63
2018-04-17T16:59:39.253Z,3.40
2018-04-17T17:02:05.115Z,3.63
2018-04-17T17:04:31.035Z,4.43
2018-04-17T17:06:56.924Z,3.70
2018-04-17T17:09:22.810Z,3.23
2018-04-17T17:11:48.680Z,2.87
2018-04-17T17:14:14.527Z,4.00
2018-04-17T17:16:40.402Z,2.90
2018-04-17T17:19:06.286Z,2.83
2018-04-17T17:21:32.192Z,3.23
2018-04-17T17:23:58.024Z,4.00
2018-04-17T17:26:24.075Z,3.70
2018-04-17T17:28:49.908Z,3.70
2018-04-17T17:31:15.785Z,4.63
2018-04-17T17:33:41.677Z,3.30
2018-04-17T17:36:07.556Z,2.77
2018-04-17T17:38:33.461Z,6.33
2018-04-17T17:40:59.337Z,2.47
2018-04-17T17:43:25.214Z,3.40
2018-04-17T17:45:51.094Z,3.17
2018-04-17T17:48:16.959Z,3.63
2018-04-17T17:50:42.865Z,3.77
2018-04-17T17:53:08.802Z,3.73
2018-04-17T17:55:34.695Z,2.93
2018-04-17T17:58:00.580Z,3.07
2018-04-17T18:00:26.465Z,3.50
2018-04-17T18:02:52.365Z,3.60
2018-04-17T18:05:18.286Z,4.13
2018-04-17T18:07:44.171Z,5.30
2018-04-17T18:10:10.017Z,4.20
2018-04-17T18:12:35.908Z,4.80
2018-04-17T18:15:01.799Z,5.30
2018-04-17T18:17:27.680Z,4.60
2018-04-17T18:19:53.557Z,5.17
2018-04-17T18:22:19.425Z,5.70
2018-04-17T18:24:45.304Z,7.60
2018-04-17T18:27:11.173Z,8.00
2018-04-17T18:29:37.073Z,8.47
2018-04-17T18:32:03.001Z,7.80
2018-04-17T18:34:28.849Z,11.70
2018-04-17T18:36:54.752Z,9.03
2018-04-17T18:39:20.641Z,6.40
2018-04-17T18:41:46.546Z,5.77
2018-04-17T18:44:12.429Z,5.50
2018-04-17T18:46:38.280Z,6.20
2018-04-17T18:49:04.133Z,8.97
2018-04-17T18:51:30.005Z,4.50
2018-04-17T18:53:55.877Z,5.60
2018-04-17T18:56:21.746Z,7.40
2018-04-17T18:58:47.694Z,4.93
2018-04-17T19:01:13.558Z,5.07
2018-04-17T19:03:39.425Z,4.30
2018-04-17T19:06:05.334Z,4.60
2018-04-17T19:08:31.216Z,6.17
2018-04-17T19:10:57.098Z,9.23
2018-04-17T19:13:22.953Z,4.07
2018-04-17T19:15:48.840Z,7.23
2018-04-17T19:18:14.718Z,5.20
2018-04-17T19:20:40.598Z,5.97
2018-04-17T19:23:06.458Z,4.67
2018-04-17T19:25:32.360Z,4.90
2018-04-17T19:27:58.225Z,10.03
2018-04-17T19:30:24.089Z,8.43
2018-04-17T19:32:50.093Z,8.73
2018-04-17T19:35:16.033Z,7.00
2018-04-17T19:37:41.893Z,7.83
2018-04-17T19:40:07.786Z,5.90
2018-04-17T19:42:33.685Z,4.77
2018-04-17T19:44:59.686Z,4.90
2018-04-17T19:47:25.565Z,4.33
2018-04-17T19:49:51.452Z,4.33
2018-04-17T19:52:17.341Z,4.20
2018-04-17T19:54:43.243Z,6.60
2018-04-17T19:57:09.194Z,7.87
2018-04-17T19:59:35.005Z,7.47
2018-04-17T20:02:00.849Z,4.70
2018-04-17T20:04:26.708Z,7.53
2018-04-17T20:06:52.574Z,6.77
2018-04-17T20:09:18.514Z,7.73
2018-04-17T20:11:44.355Z,9.50
2018-04-17T20:14:10.323Z,4.70
2018-04-17T20:16:36.222Z,8.23
2018-04-17T20:19:02.077Z,8.43
2018-04-17T20:21:27.939Z,6.13
2018-04-17T20:23:53.802Z,5.53
2018-04-17T20:26:19.666Z,8.07
2018-04-17T20:28:45.552Z,7.70
2018-04-17T20:31:11.377Z,6.07
2018-04-17T20:33:37.250Z,4.93
2018-04-17T20:36:03.151Z,5.00
2018-04-17T20:38:29.067Z,8.17
2018-04-17T20:40:54.930Z,6.00
2018-04-17T20:43:20.844Z,5.80
2018-04-17T20:45:46.786Z,7.50
2018-04-17T20:48:12.717Z,11.67
2018-04-17T20:50:38.676Z,7.03
2018-04-17T20:53:04.615Z,14.80
2018-04-17T20:55:30.555Z,12.77
2018-04-17T20:57:56.458Z,17.00
2018-04-17T21:00:22.430Z,13.57
2018-04-17T21:02:48.335Z,11.73
2018-04-17T21:05:14.196Z,12.20
2018-04-17T21:07:40.056Z,17.80
2018-04-17T21:10:05.995Z,9.67
2018-04-17T21:12:31.893Z,13.50
2018-04-17T21:14:57.761Z,10.60
2018-04-17T21:17:23.672Z,6.63
2018-04-17T21:19:49.568Z,7.07
2018-04-17T21:22:15.480Z,7.03
2018-04-17T21:24:41.377Z,8.63
2018-04-17T21:27:07.281Z,9.17
2018-04-17T21:29:33.153Z,6.97
2018-04-17T21:31:59.003Z,10.30
2018-04-17T21:34:24.889Z,8.90
2018-04-17T21:36:50.749Z,9.67
2018-04-17T21:39:16.711Z,10.17
2018-04-17T21:41:42.588Z,7.97
2018-04-17T21:44:08.461Z,8.10
2018-04-17T21:46:34.389Z,6.50
2018-04-17T21:49:00.269Z,7.87
2018-04-17T21:51:26.172Z,7.27
2018-04-17T21:53:52.034Z,7.37
2018-04-17T21:56:17.921Z,9.20
2018-04-17T21:58:43.833Z,7.47
2018-04-17T22:01:09.674Z,7.90
2018-04-17T22:03:35.416Z,7.20
2018-04-17T22:06:01.280Z,7.53
2018-04-17T22:08:27.125Z,7.40
2018-04-17T22:10:53.000Z,6.47
2018-04-17T22:13:18.874Z,10.13
2018-04-17T22:15:44.781Z,8.87
2018-04-17T22:18:10.681Z,7.57
2018-04-17T22:20:36.626Z,8.63
2018-04-17T22:23:02.535Z,6.60
2018-04-17T22:25:28.460Z,9.97
2018-04-17T22:27:54.320Z,8.87
2018-04-17T22:30:20.170Z,7.57
2018-04-17T22:32:46.077Z,9.80
2018-04-17T22:35:11.955Z,6.20
2018-04-17T22:37:37.861Z,5.43
2018-04-17T22:40:03.785Z,8.93
2018-04-17T22:42:29.728Z,6.33
2018-04-17T22:44:55.617Z,9.00
2018-04-17T22:47:21.518Z,7.57
2018-04-17T22:49:47.445Z,6.43
2018-04-17T22:52:13.321Z,6.97
2018-04-17T22:54:39.242Z,7.60
2018-04-17T22:57:05.140Z,11.00
2018-04-17T22:59:31.017Z,7.63
2018-04-17T23:01:56.900Z,11.10
2018-04-17T23:04:22.778Z,6.90
2018-04-17T23:06:48.681Z,7.10
2018-04-17T23:09:14.545Z,6.50
2018-04-17T23:11:40.483Z,7.70
2018-04-17T23:14:06.357Z,7.30
2018-04-17T23:16:32.228Z,8.50
2018-04-17T23:18:58.102Z,8.13
2018-04-17T23:21:23.952Z,8.00
2018-04-17T23:23:49.842Z,5.77
2018-04-17T23:26:15.702Z,7.97
2018-04-17T23:28:41.592Z,7.10
2018-04-17T23:31:07.472Z,6.57
2018-04-17T23:33:33.313Z,8.10
2018-04-17T23:35:59.197Z,10.63
2018-04-17T23:38:25.049Z,6.40
2018-04-17T23:40:50.957Z,7.10
2018-04-17T23:43:16.844Z,9.40
2018-04-17T23:45:42.724Z,7.40
2018-04-17T23:48:08.609Z,7.10
2018-04-17T23:50:34.468Z,7.20
2018-04-17T23:53:00.361Z,7.30
2018-04-17T23:55:26.205Z,8.13
2018-04-17T23:57:52.082Z,7.97
